Zahedan, Iran

8:54 AM IRST on October 26, 2014 (GMT +0330)
Zahedan International | Change Station
CLOSE
Current Station
Airport
Location: Zahedan,
Elevation: 4495 ft
Nearby Weather Stations

Elev 4495 ft 29.47 °N, 60.88 °E | Updated 24 minutes ago

Clear
Clear
75 °F
Feels Like 75 °F
N
16
Wind Variable Wind from SW

Today
High -- | Low -- °F
--% Chance of Precip.
Yesterday
High -- | Low -- °F
Precip. -- in
5:34 AM 4:45 PM
Waxing Crescent, 6% visible
Pressure 30.15 in
Visibility -9999.0 miles
Clouds
Dew Point 37 °F
Humidity 25%
Rainfall 0.00 in
Snow Depth Not available.
UV Not available.
Pollen Not available.
Air Quality Not available.
Flu Activity Not available.
METAR OIZH 260500Z 22014KT CAVOK 24/03 Q1021 A3015 NOSIG

More Conditions Fewer Conditions

Pressure 30.15 in
Visibility -9999.0 miles
Clouds
Dew Point 37 °F
Humidity 25%
Rainfall 0.00 in
Snow Depth Not available.
UV Not available.
Pollen Not available.
Air Quality Not available.
Flu Activity Not available.
METAR OIZH 260500Z 22014KT CAVOK 24/03 Q1021 A3015 NOSIG

More Conditions Fewer Conditions

10-Day Weather Forecast

Almanac

Astronomy

Oct. 26, 2014 Rise Set
Actual Time 5:34 AM IRST 4:45 PM IRST
Civil Twilight 5:10 AM IRST 5:09 PM IRST
Nautical Twilight 4:42 AM IRST 5:37 PM IRST
Astronomical Twilight 4:15 AM IRST 6:05 PM IRST
Moon 7:41 AM IRST 6:43 PM IRST
Length of Visible Light 11h 59m
Length of Day
11h 10m
Tomorrow will be 1m 36s shorter.
Waxing Crescent, 6% of the Moon is Illuminated
Today
Waxing Crescent
Oct 30
First Quarter
Nov 6
Full
Nov 14
Last Quarter
Nov 22
New

Yesterday's Extremes

Country Highs Country Lows

Community

WunderPhotos

Upload Photos

1,765,112 photos uploaded!

Nearby

Snow Depth

Not available.

Earthquake Activity

City Distance Mag. Time & Date
No recent earthquake activity has been reported nearby.
Minimum magnitude displayed is 2.5.

Coastal Water Temperatures

Place Temperature
No Stations Reporting

Nearby Weather Stations